Terminal Aerodrome Forecast
Issued by NWS Pueblo, CO

Home | Current Version | Previous Version | Text Only | Print | Product List | Glossary On
Versions: 1 2 3 4 5 6 7 8 9 10 11 12 13
000
FTUS45 KPUB 252323
TAFCOS
TAF
KCOS 252323Z 2600/2624 17012KT P6SM SKC
     FM260200 VRB06KT P6SM SKC
     FM260800 35008KT P6SM SCT150
     FM261500 22010G20KT P6SM SCT150=

USA.gov is the U.S. government's official web portal to all federal, state and local government web resources and services.